createdAt,value
2022-09-20T00:01:07.784Z,3.00
2022-09-20T00:03:36.762Z,2.30
2022-09-20T00:06:07.837Z,2.33
2022-09-20T00:08:36.420Z,2.50
2022-09-20T00:11:04.809Z,2.20
2022-09-20T00:13:32.910Z,2.20
2022-09-20T00:16:01.150Z,2.50
2022-09-20T00:18:29.072Z,2.57
2022-09-20T00:20:57.016Z,2.23
2022-09-20T00:23:26.389Z,2.23
2022-09-20T00:25:58.101Z,1.83
2022-09-20T00:28:26.166Z,2.70
2022-09-20T00:30:54.539Z,2.37
2022-09-20T00:33:22.788Z,1.90
2022-09-20T00:35:50.327Z,2.27
2022-09-20T00:38:18.541Z,2.30
2022-09-20T00:40:47.808Z,1.97
2022-09-20T00:43:17.085Z,1.63
2022-09-20T00:45:45.739Z,1.77
2022-09-20T00:48:16.218Z,1.77
2022-09-20T00:50:46.753Z,1.97
2022-09-20T00:53:19.532Z,2.10
2022-09-20T00:55:51.069Z,1.50
2022-09-20T00:58:20.549Z,1.60
2022-09-20T01:00:49.583Z,1.40
2022-09-20T01:03:20.181Z,1.37
2022-09-20T01:05:48.137Z,1.80
2022-09-20T01:08:16.046Z,1.47
2022-09-20T01:10:44.234Z,1.80
2022-09-20T01:13:13.855Z,1.97
2022-09-20T01:15:41.933Z,1.50
2022-09-20T01:18:10.797Z,1.63
2022-09-20T01:20:42.014Z,2.10
2022-09-20T01:23:21.345Z,2.30
2022-09-20T01:26:10.433Z,1.90
2022-09-20T01:28:42.157Z,2.00
2022-09-20T01:31:13.717Z,1.90
2022-09-20T01:33:45.899Z,1.63
2022-09-20T01:36:17.388Z,2.50
2022-09-20T01:38:50.175Z,2.03
2022-09-20T01:41:21.981Z,2.30
2022-09-20T01:43:53.814Z,2.27
2022-09-20T01:46:31.065Z,2.20
2022-09-20T01:49:08.172Z,2.43
2022-09-20T01:52:08.472Z,2.03
2022-09-20T01:55:08.996Z,1.90
2022-09-20T01:58:07.290Z,2.40
2022-09-20T02:00:43.169Z,2.20
2022-09-20T02:03:41.551Z,1.87
2022-09-20T02:06:18.589Z,2.07
2022-09-20T02:09:28.085Z,2.00
2022-09-20T02:12:33.580Z,1.87
2022-09-20T02:15:08.352Z,2.00
2022-09-20T02:17:45.138Z,1.77
2022-09-20T02:20:20.773Z,1.60
2022-09-20T02:22:55.385Z,1.77
2022-09-20T02:25:41.429Z,1.40
2022-09-20T02:28:19.491Z,1.90
2022-09-20T02:30:55.396Z,1.50
2022-09-20T02:33:47.109Z,1.60
2022-09-20T02:36:27.206Z,1.27
2022-09-20T02:39:01.292Z,1.50
2022-09-20T02:41:53.744Z,1.30
2022-09-20T02:44:29.453Z,1.30
2022-09-20T02:47:04.216Z,1.30
2022-09-20T02:49:37.686Z,1.00
2022-09-20T02:52:11.836Z,1.10
2022-09-20T02:54:46.967Z,0.97
2022-09-20T02:57:19.028Z,0.83
2022-09-20T02:59:51.818Z,0.80
2022-09-20T03:02:25.467Z,1.00
2022-09-20T03:05:14.292Z,0.70
2022-09-20T03:07:53.249Z,0.77
2022-09-20T03:10:27.752Z,0.70
2022-09-20T03:13:10.025Z,1.50
2022-09-20T03:15:46.716Z,1.97
2022-09-20T03:18:17.399Z,1.90
2022-09-20T03:20:53.550Z,1.40
2022-09-20T03:23:35.005Z,1.60
2022-09-20T03:26:11.204Z,1.80
2022-09-20T03:28:54.836Z,1.60
2022-09-20T03:31:31.185Z,1.47
2022-09-20T03:34:05.446Z,1.53
2022-09-20T03:36:54.643Z,1.53
2022-09-20T03:39:42.536Z,1.33
2022-09-20T03:42:16.432Z,1.17
2022-09-20T03:45:08.144Z,1.50
2022-09-20T03:47:49.137Z,1.73
2022-09-20T03:51:02.501Z,1.60
2022-09-20T03:53:45.210Z,1.77
2022-09-20T03:56:31.209Z,1.57
2022-09-20T03:59:10.795Z,1.27
2022-09-20T04:01:56.709Z,1.70
2022-09-20T04:04:28.437Z,1.57
2022-09-20T04:07:11.185Z,1.67
2022-09-20T04:10:20.285Z,2.20
2022-09-20T04:13:00.672Z,1.40
2022-09-20T04:15:33.765Z,1.33
2022-09-20T04:18:06.324Z,1.50
2022-09-20T04:20:41.503Z,1.50
2022-09-20T04:23:19.386Z,1.30
2022-09-20T04:25:49.413Z,1.70
2022-09-20T04:28:22.909Z,1.60
2022-09-20T04:30:53.022Z,1.80
2022-09-20T04:33:24.652Z,1.67
2022-09-20T04:36:16.864Z,1.80
2022-09-20T04:38:45.399Z,1.70
2022-09-20T04:41:37.884Z,1.60
2022-09-20T04:44:27.702Z,1.63
2022-09-20T04:47:17.411Z,1.60
2022-09-20T04:50:11.000Z,2.03
2022-09-20T04:52:55.223Z,2.23
2022-09-20T04:55:45.798Z,2.40
2022-09-20T04:58:40.569Z,3.80
2022-09-20T05:01:56.017Z,3.93
2022-09-20T05:04:49.012Z,5.90
2022-09-20T05:07:55.116Z,6.10
2022-09-20T05:11:02.671Z,4.60
2022-09-20T05:13:43.201Z,3.70
2022-09-20T05:16:19.620Z,5.30
2022-09-20T05:19:07.470Z,3.90
2022-09-20T05:21:48.561Z,3.33
2022-09-20T05:24:31.154Z,5.00
2022-09-20T05:27:10.492Z,2.63
2022-09-20T05:29:48.625Z,3.03
2022-09-20T05:32:24.064Z,3.03
2022-09-20T05:34:55.980Z,3.50
2022-09-20T05:37:37.689Z,2.93
2022-09-20T05:40:13.347Z,3.80
2022-09-20T05:42:44.269Z,3.17
2022-09-20T05:45:27.615Z,3.70
2022-09-20T05:48:00.669Z,3.60
2022-09-20T05:50:40.662Z,2.60
2022-09-20T05:53:51.596Z,3.00
2022-09-20T05:56:28.532Z,2.53
2022-09-20T05:59:11.907Z,2.60
2022-09-20T06:01:44.002Z,2.50
2022-09-20T06:04:17.745Z,2.30
2022-09-20T06:06:59.057Z,2.73
2022-09-20T06:09:41.633Z,2.00
2022-09-20T06:12:19.018Z,3.60
2022-09-20T06:14:50.813Z,2.97
2022-09-20T06:17:26.609Z,1.77
2022-09-20T06:20:04.469Z,2.50
2022-09-20T06:22:35.223Z,1.90
2022-09-20T06:25:05.863Z,3.30
2022-09-20T06:27:39.485Z,2.33
2022-09-20T06:30:14.727Z,2.53
2022-09-20T06:32:56.168Z,2.50
2022-09-20T06:35:26.119Z,1.57
2022-09-20T06:38:14.098Z,1.37
2022-09-20T06:41:15.263Z,1.87
2022-09-20T06:43:43.151Z,1.57
2022-09-20T06:46:11.911Z,1.80
2022-09-20T06:48:42.534Z,3.40
2022-09-20T06:51:11.108Z,2.47
2022-09-20T06:53:41.072Z,1.90
2022-09-20T06:56:10.387Z,2.00
2022-09-20T06:58:38.273Z,2.57
2022-09-20T07:01:06.410Z,2.00
2022-09-20T07:03:34.346Z,1.60
2022-09-20T07:06:04.460Z,1.20
2022-09-20T07:08:32.367Z,1.17
2022-09-20T07:11:04.894Z,1.60
2022-09-20T07:13:32.795Z,2.63
2022-09-20T07:16:04.887Z,2.33
2022-09-20T07:18:33.569Z,1.50
2022-09-20T07:21:02.937Z,2.03
2022-09-20T07:23:31.330Z,1.93
2022-09-20T07:25:59.871Z,2.80
2022-09-20T07:28:28.524Z,2.20
2022-09-20T07:30:56.405Z,2.60
2022-09-20T07:33:25.127Z,2.60
2022-09-20T07:35:53.799Z,1.90
2022-09-20T07:38:24.202Z,1.53
2022-09-20T07:40:57.233Z,1.10
2022-09-20T07:43:25.606Z,1.60
2022-09-20T07:45:56.020Z,1.07
2022-09-20T07:48:25.924Z,1.20
2022-09-20T07:50:54.433Z,1.60
2022-09-20T07:53:24.033Z,1.00
2022-09-20T07:55:59.254Z,1.20
2022-09-20T07:58:27.380Z,0.93
2022-09-20T08:00:55.758Z,0.80
2022-09-20T08:03:23.741Z,0.90
2022-09-20T08:05:52.005Z,1.10
2022-09-20T08:08:20.140Z,1.10
2022-09-20T08:10:49.676Z,1.17
2022-09-20T08:16:07.833Z,1.07
2022-09-20T08:18:36.141Z,0.70
2022-09-20T08:21:06.869Z,1.60
2022-09-20T08:23:36.117Z,2.03
2022-09-20T08:26:07.903Z,1.03
2022-09-20T08:28:36.361Z,1.13
2022-09-20T08:31:04.767Z,0.93
2022-09-20T08:33:33.085Z,1.20
2022-09-20T08:36:01.373Z,0.80
2022-09-20T08:41:23.297Z,1.33
2022-09-20T08:43:53.381Z,1.00
2022-09-20T08:46:26.012Z,0.70
2022-09-20T08:48:54.430Z,1.00
2022-09-20T08:51:23.481Z,1.30
2022-09-20T08:53:53.752Z,1.00
2022-09-20T08:56:23.552Z,1.27
2022-09-20T08:58:53.289Z,0.83
2022-09-20T09:01:23.167Z,1.10
2022-09-20T09:03:52.492Z,0.90
2022-09-20T09:06:21.846Z,1.00
2022-09-20T09:08:53.388Z,1.40
2022-09-20T09:11:23.556Z,1.27
2022-09-20T09:13:54.808Z,1.70
2022-09-20T09:16:33.482Z,1.17
2022-09-20T09:19:33.183Z,1.23
2022-09-20T09:22:02.719Z,0.80
2022-09-20T09:24:32.129Z,0.93
2022-09-20T09:27:10.631Z,0.73
2022-09-20T09:29:50.009Z,0.73
2022-09-20T09:32:24.796Z,0.50
2022-09-20T09:34:53.289Z,0.77
2022-09-20T09:37:28.811Z,0.60
2022-09-20T09:40:16.435Z,0.90
2022-09-20T09:42:53.217Z,0.60
2022-09-20T09:45:38.788Z,0.57
2022-09-20T09:48:21.161Z,0.53
2022-09-20T09:50:49.164Z,0.60
2022-09-20T09:53:18.700Z,0.60
2022-09-20T09:56:14.197Z,0.63
2022-09-20T09:58:55.513Z,0.80
2022-09-20T10:01:33.252Z,0.60
2022-09-20T10:04:06.762Z,0.77
2022-09-20T10:06:40.327Z,0.60
2022-09-20T10:09:18.030Z,0.43
2022-09-20T10:11:58.675Z,0.50
2022-09-20T10:14:44.981Z,1.17
2022-09-20T10:17:31.340Z,0.70
2022-09-20T10:20:08.153Z,1.23
2022-09-20T10:22:42.230Z,0.80
2022-09-20T10:25:23.959Z,1.23
2022-09-20T10:28:03.207Z,4.23
2022-09-20T10:30:42.128Z,2.47
2022-09-20T10:33:19.720Z,1.70
2022-09-20T10:35:59.145Z,1.20
2022-09-20T10:38:31.572Z,2.50
2022-09-20T10:41:27.465Z,1.83
2022-09-20T10:44:08.567Z,0.63
2022-09-20T10:46:47.293Z,1.00
2022-09-20T10:49:33.651Z,0.80
2022-09-20T10:52:11.728Z,0.60
2022-09-20T10:54:49.593Z,1.13
2022-09-20T10:57:28.047Z,0.87
2022-09-20T11:00:01.750Z,1.00
2022-09-20T11:02:40.562Z,0.73
2022-09-20T11:05:25.451Z,0.80
2022-09-20T11:08:00.647Z,0.70
2022-09-20T11:10:33.445Z,0.67
2022-09-20T11:13:03.686Z,1.47
2022-09-20T11:15:35.789Z,0.77
2022-09-20T11:18:11.145Z,1.00
2022-09-20T11:20:44.223Z,1.20
2022-09-20T11:23:15.699Z,1.37
2022-09-20T11:25:47.066Z,1.50
2022-09-20T11:28:19.377Z,1.20
2022-09-20T11:30:55.811Z,0.73
2022-09-20T11:33:28.992Z,0.93
2022-09-20T11:36:00.280Z,0.93
2022-09-20T11:38:31.762Z,1.20
2022-09-20T11:41:05.040Z,1.10
2022-09-20T11:43:33.496Z,1.17
2022-09-20T11:46:04.954Z,0.77
2022-09-20T11:48:37.423Z,0.80
2022-09-20T11:51:50.283Z,1.13
2022-09-20T11:54:48.696Z,0.90
2022-09-20T11:57:17.221Z,4.03
2022-09-20T11:59:52.077Z,1.30
2022-09-20T12:02:24.336Z,0.80
2022-09-20T12:04:54.096Z,1.20
2022-09-20T12:07:25.053Z,1.20
2022-09-20T12:09:56.328Z,0.90
2022-09-20T12:12:33.594Z,2.90
2022-09-20T12:15:04.298Z,1.50
2022-09-20T12:18:09.393Z,1.30
2022-09-20T12:21:15.635Z,1.50
2022-09-20T12:24:02.660Z,1.60
2022-09-20T12:26:39.874Z,1.10
2022-09-20T12:29:54.201Z,1.20
2022-09-20T12:32:46.965Z,2.07
2022-09-20T12:36:00.641Z,1.33
2022-09-20T12:38:40.780Z,2.00
2022-09-20T12:41:12.320Z,1.90
2022-09-20T12:43:59.737Z,1.60
2022-09-20T12:46:32.877Z,1.27
2022-09-20T12:49:55.173Z,1.00
2022-09-20T12:52:53.902Z,0.90
2022-09-20T12:55:55.381Z,0.90
2022-09-20T12:58:39.700Z,1.90
2022-09-20T13:01:33.054Z,0.97
2022-09-20T13:04:37.861Z,1.67
2022-09-20T13:07:45.010Z,1.40
2022-09-20T13:10:25.377Z,1.00
2022-09-20T13:12:59.243Z,1.70
2022-09-20T13:15:27.695Z,0.90
2022-09-20T13:17:57.878Z,1.30
2022-09-20T13:20:28.063Z,1.23
2022-09-20T13:23:00.185Z,1.00
2022-09-20T13:25:28.978Z,0.97
2022-09-20T13:28:06.232Z,0.90
2022-09-20T13:30:34.179Z,0.90
2022-09-20T13:33:17.543Z,1.27
2022-09-20T13:35:47.027Z,1.00
2022-09-20T13:38:20.345Z,0.73
2022-09-20T13:40:48.775Z,1.17
2022-09-20T13:43:28.320Z,1.27
2022-09-20T13:45:58.107Z,1.40
2022-09-20T13:48:27.524Z,0.90
2022-09-20T13:50:55.946Z,1.13
2022-09-20T13:53:40.714Z,1.20
2022-09-20T13:56:11.536Z,1.83
2022-09-20T13:58:40.954Z,2.10
2022-09-20T14:01:22.970Z,3.27
2022-09-20T14:03:50.987Z,2.57
2022-09-20T14:06:19.236Z,1.77
2022-09-20T14:08:49.750Z,1.80
2022-09-20T14:11:20.343Z,1.53
2022-09-20T14:13:51.185Z,1.27
2022-09-20T14:16:20.469Z,2.20
2022-09-20T14:18:49.374Z,4.20
2022-09-20T14:21:22.872Z,2.17
2022-09-20T14:23:52.848Z,1.83
2022-09-20T14:26:26.301Z,1.00
2022-09-20T14:28:56.108Z,0.80
2022-09-20T14:31:26.778Z,0.90
2022-09-20T14:33:58.998Z,1.10
2022-09-20T14:36:29.775Z,1.57
2022-09-20T14:39:00.525Z,0.97
2022-09-20T14:41:29.937Z,2.50
2022-09-20T14:44:00.783Z,1.47
2022-09-20T14:46:35.857Z,1.03
2022-09-20T14:49:23.456Z,0.67
2022-09-20T14:51:51.684Z,0.87
2022-09-20T14:54:27.043Z,1.00
2022-09-20T14:56:57.782Z,1.40
2022-09-20T14:59:28.139Z,0.90
2022-09-20T15:01:59.166Z,1.10
2022-09-20T15:04:29.002Z,0.83
2022-09-20T15:06:57.925Z,1.30
2022-09-20T15:09:25.840Z,0.90
2022-09-20T15:12:01.468Z,0.73
2022-09-20T15:14:35.041Z,0.90
2022-09-20T15:17:05.323Z,0.60
2022-09-20T15:19:34.546Z,0.83
2022-09-20T15:22:03.380Z,0.90
2022-09-20T15:24:31.310Z,0.73
2022-09-20T15:26:59.298Z,0.50
2022-09-20T15:29:27.272Z,0.83
2022-09-20T15:31:56.720Z,1.00
2022-09-20T15:34:24.901Z,0.90
2022-09-20T15:36:53.977Z,0.73
2022-09-20T15:39:22.385Z,0.90
2022-09-20T15:41:52.798Z,0.80
2022-09-20T15:44:20.769Z,0.80
2022-09-20T15:46:49.460Z,0.90
2022-09-20T15:49:19.035Z,0.83
2022-09-20T15:51:48.368Z,0.90
2022-09-20T15:54:16.324Z,1.43
2022-09-20T15:56:44.246Z,1.80
2022-09-20T15:59:14.452Z,6.20
2022-09-20T16:01:43.693Z,1.77
2022-09-20T16:04:13.225Z,0.70
2022-09-20T16:06:44.072Z,2.13
2022-09-20T16:09:12.097Z,1.90
2022-09-20T16:11:40.744Z,2.20
2022-09-20T16:14:08.878Z,1.40
2022-09-20T16:16:40.466Z,4.07
2022-09-20T16:19:23.860Z,6.93
2022-09-20T16:21:58.899Z,3.13
2022-09-20T16:24:28.734Z,1.17
2022-09-20T16:26:57.021Z,3.70
2022-09-20T16:29:26.011Z,4.00
2022-09-20T16:31:55.100Z,3.67
2022-09-20T16:34:25.580Z,2.70
2022-09-20T16:36:56.845Z,2.97
2022-09-20T16:39:26.236Z,3.17
2022-09-20T16:41:55.018Z,2.67
2022-09-20T16:44:22.924Z,3.50
2022-09-20T16:46:50.842Z,7.27
2022-09-20T16:49:18.768Z,5.00
2022-09-20T16:51:47.556Z,2.13
2022-09-20T16:54:18.038Z,3.60
2022-09-20T16:56:47.268Z,4.37
2022-09-20T16:59:17.342Z,3.20
2022-09-20T17:01:45.936Z,2.73
2022-09-20T17:04:15.036Z,2.30
2022-09-20T17:06:44.262Z,3.33
2022-09-20T17:09:12.894Z,3.33
2022-09-20T17:11:44.644Z,3.20
2022-09-20T17:14:12.908Z,2.30
2022-09-20T17:16:42.139Z,3.50
2022-09-20T17:19:11.401Z,9.63
2022-09-20T17:21:42.434Z,2.37
2022-09-20T17:24:10.844Z,5.40
2022-09-20T17:26:40.874Z,4.83
2022-09-20T17:29:13.802Z,3.30
2022-09-20T17:31:43.909Z,3.90
2022-09-20T17:34:13.610Z,3.10
2022-09-20T17:36:42.916Z,4.83
2022-09-20T17:39:12.706Z,3.00
2022-09-20T17:41:41.242Z,2.20
2022-09-20T17:44:11.989Z,3.40
2022-09-20T17:46:41.166Z,4.03
2022-09-20T17:49:10.681Z,2.87
2022-09-20T17:51:40.636Z,1.30
2022-09-20T17:54:09.087Z,1.10
2022-09-20T17:56:37.182Z,1.50
2022-09-20T17:59:06.296Z,1.30
2022-09-20T18:01:37.007Z,1.50
2022-09-20T18:04:06.705Z,1.33
2022-09-20T18:06:36.756Z,1.83
2022-09-20T18:09:06.788Z,2.07
2022-09-20T18:11:36.934Z,2.30
2022-09-20T18:14:06.848Z,2.30
2022-09-20T18:16:37.166Z,2.13
2022-09-20T18:19:05.920Z,2.30
2022-09-20T18:21:36.028Z,2.57
2022-09-20T18:24:07.015Z,2.00
2022-09-20T18:26:35.438Z,1.60
2022-09-20T18:29:05.257Z,1.20
2022-09-20T18:31:35.977Z,1.50
2022-09-20T18:34:06.664Z,2.10
2022-09-20T18:36:36.865Z,1.67
2022-09-20T18:39:04.992Z,1.60
2022-09-20T18:41:34.135Z,2.57
2022-09-20T18:44:04.060Z,2.83
2022-09-20T18:46:32.285Z,3.30
2022-09-20T18:49:05.095Z,3.53
2022-09-20T18:51:39.206Z,4.60
2022-09-20T18:54:10.037Z,3.20
2022-09-20T18:56:38.906Z,2.73
2022-09-20T18:59:08.298Z,2.73
2022-09-20T19:02:04.782Z,3.40
2022-09-20T19:04:53.285Z,4.73
2022-09-20T19:07:26.898Z,5.73
2022-09-20T19:10:00.009Z,6.73
2022-09-20T19:12:35.595Z,5.07
2022-09-20T19:15:15.992Z,5.10
2022-09-20T19:17:54.147Z,4.03
2022-09-20T19:20:29.797Z,5.80
2022-09-20T19:23:05.440Z,7.90
2022-09-20T19:25:40.750Z,10.20
2022-09-20T19:28:10.837Z,10.70
2022-09-20T19:30:40.734Z,8.20
2022-09-20T19:33:14.800Z,6.67
2022-09-20T19:35:49.333Z,5.40
2022-09-20T19:38:29.052Z,6.50
2022-09-20T19:41:07.558Z,4.03
2022-09-20T19:43:48.140Z,6.03
2022-09-20T19:46:30.546Z,5.00
2022-09-20T19:49:07.422Z,2.80
2022-09-20T19:51:38.049Z,3.47
2022-09-20T19:54:09.814Z,3.00
2022-09-20T19:56:52.949Z,2.50
2022-09-20T19:59:22.407Z,2.93
2022-09-20T20:01:50.965Z,2.77
2022-09-20T20:04:19.517Z,2.30
2022-09-20T20:06:53.720Z,2.90
2022-09-20T20:09:29.126Z,3.73
2022-09-20T20:12:02.389Z,3.80
2022-09-20T20:14:37.647Z,2.60
2022-09-20T20:17:16.937Z,4.43
2022-09-20T20:19:51.987Z,5.50
2022-09-20T20:22:29.675Z,5.10
2022-09-20T20:24:59.352Z,4.97
2022-09-20T20:27:28.387Z,6.00
2022-09-20T20:29:56.772Z,5.70
2022-09-20T20:32:25.847Z,5.57
2022-09-20T20:34:53.783Z,4.77
2022-09-20T20:37:23.984Z,4.80
2022-09-20T20:39:52.180Z,4.97
2022-09-20T20:42:21.609Z,4.30
2022-09-20T20:44:49.721Z,5.87
2022-09-20T20:47:17.601Z,6.00
2022-09-20T20:49:48.439Z,6.73
2022-09-20T20:52:18.793Z,5.27
2022-09-20T20:54:46.740Z,3.27
2022-09-20T20:57:16.952Z,4.90
2022-09-20T20:59:46.301Z,3.40
2022-09-20T21:02:14.163Z,2.80
2022-09-20T21:04:42.389Z,4.63
2022-09-20T21:07:10.822Z,5.00
2022-09-20T21:09:39.749Z,5.60
2022-09-20T21:12:08.037Z,6.10
2022-09-20T21:14:35.989Z,5.13
2022-09-20T21:17:05.458Z,5.10
2022-09-20T21:19:33.410Z,5.73
2022-09-20T21:22:01.381Z,6.97
2022-09-20T21:24:29.293Z,6.83
2022-09-20T21:26:57.211Z,9.47
2022-09-20T21:29:25.076Z,9.83
2022-09-20T21:31:53.021Z,6.23
2022-09-20T21:34:22.335Z,4.57
2022-09-20T21:36:50.352Z,4.20
2022-09-20T21:39:18.265Z,2.87
2022-09-20T21:41:47.290Z,2.57
2022-09-20T21:44:15.159Z,2.20
2022-09-20T21:46:43.421Z,2.00
2022-09-20T21:49:12.673Z,1.87
2022-09-20T21:51:42.766Z,1.60
2022-09-20T21:54:11.040Z,1.67
2022-09-20T21:56:40.256Z,2.00
2022-09-20T21:59:08.371Z,2.80
2022-09-20T22:01:38.075Z,3.20
2022-09-20T22:04:07.676Z,3.77
2022-09-20T22:06:37.033Z,3.30
2022-09-20T22:09:07.647Z,3.00
2022-09-20T22:11:38.840Z,2.60
2022-09-20T22:14:07.452Z,1.63
2022-09-20T22:16:37.136Z,1.47
2022-09-20T22:19:05.880Z,1.50
2022-09-20T22:21:36.723Z,1.50
2022-09-20T22:24:07.930Z,2.03
2022-09-20T22:26:37.568Z,3.00
2022-09-20T22:29:06.598Z,2.70
2022-09-20T22:31:36.227Z,2.20
2022-09-20T22:34:07.246Z,2.10
2022-09-20T22:36:36.256Z,2.07
2022-09-20T22:39:07.584Z,2.03
2022-09-20T22:41:35.772Z,1.97
2022-09-20T22:44:03.905Z,1.90
2022-09-20T22:46:32.592Z,1.97
2022-09-20T22:49:00.580Z,1.90
2022-09-20T22:51:30.808Z,2.20
2022-09-20T22:53:58.846Z,2.33
2022-09-20T22:56:29.744Z,2.30
2022-09-20T22:59:00.242Z,2.77
2022-09-20T23:01:29.433Z,1.87
2022-09-20T23:03:58.889Z,2.03
2022-09-20T23:06:28.559Z,2.47
2022-09-20T23:08:57.924Z,1.80
2022-09-20T23:11:26.290Z,2.10
2022-09-20T23:13:57.031Z,1.87
2022-09-20T23:16:27.674Z,2.70
2022-09-20T23:18:56.483Z,2.93
2022-09-20T23:21:24.895Z,4.00
2022-09-20T23:23:54.135Z,3.17
2022-09-20T23:26:22.522Z,3.07
2022-09-20T23:28:55.572Z,3.40
2022-09-20T23:31:23.890Z,3.00
2022-09-20T23:33:53.187Z,2.67
2022-09-20T23:36:21.772Z,3.00
2022-09-20T23:38:50.224Z,1.77
2022-09-20T23:41:20.101Z,2.00
2022-09-20T23:43:48.181Z,2.00
2022-09-20T23:46:19.061Z,2.30
2022-09-20T23:48:47.519Z,1.80
2022-09-20T23:51:17.570Z,1.70
2022-09-20T23:53:45.649Z,1.87
2022-09-20T23:56:13.951Z,2.10
2022-09-20T23:58:43.940Z,2.07
